Time;durP1;ratioP1;P1;durP2;ratioP2;P2;SDS_P1;SDS_P2;PMS_P1;PMS_P2;Temp;Humidity;BMP_temperature;BMP_pressure;BME280_temperature;BME280_humidity;BME280_pressure;Samples;Min_cycle;Max_cycle;Signal;HPM_P1;HPM_P2
2023/06/10 00:01:14;;;;;;;;;12.25;12.00;;;;;28.58;36.40;100180.66;4974365;28;45678;-75
2023/06/10 00:07:28;;;;;;;;;9.75;9.50;;;;;28.58;36.57;100185.25;4967056;28;45617;-75
2023/06/10 00:09:55;;;;;;;;;10.50;10.50;;;;;28.55;36.30;100183.84;4974358;28;45718;-75
2023/06/10 00:12:21;;;;;;;;;9.50;9.50;;;;;28.53;36.03;100185.13;4974273;28;45721;-75
2023/06/10 00:14:49;;;;;;;;;11.25;11.00;;;;;28.49;36.18;100183.97;4974401;28;46542;-75
2023/06/10 00:17:15;;;;;;;;;9.50;8.25;;;;;28.46;36.46;100184.41;4956770;28;45684;-74
2023/06/10 00:19:40;;;;;;;;;10.50;10.00;;;;;28.48;35.99;100191.22;4974325;28;45573;-75
2023/06/10 00:22:06;;;;;;;;;10.50;9.25;;;;;28.48;36.65;100190.41;4974335;28;45762;-76
2023/06/10 00:24:31;;;;;;;;;11.00;9.75;;;;;28.45;36.76;100191.69;4973859;28;46271;-75
2023/06/10 00:26:56;;;;;;;;;10.00;9.75;;;;;28.37;36.34;100179.41;4973745;28;45755;-73
2023/06/10 00:29:22;;;;;;;;;11.75;11.00;;;;;28.38;36.75;100193.72;4974176;28;45617;-76
2023/06/10 00:31:47;;;;;;;;;9.25;9.25;;;;;28.33;36.62;100191.72;4974086;28;46856;-76
2023/06/10 00:34:13;;;;;;;;;11.50;10.00;;;;;28.27;36.37;100198.03;4973516;28;47068;-74
2023/06/10 00:36:38;;;;;;;;;9.75;9.25;;;;;28.31;36.96;100201.91;4973237;28;45518;-75
2023/06/10 00:39:04;;;;;;;;;9.00;8.75;;;;;28.26;36.68;100201.78;4974061;28;45518;-76
2023/06/10 00:41:30;;;;;;;;;9.50;9.50;;;;;28.18;37.11;100195.94;4973643;28;46593;-74
2023/06/10 00:43:55;;;;;;;;;10.00;9.50;;;;;28.14;37.23;100195.56;4973934;28;46286;-74
2023/06/10 00:46:23;;;;;;;;;10.75;10.25;;;;;28.20;37.20;100213.50;4973284;28;46244;-75
2023/06/10 00:52:11;;;;;;;;;9.75;9.00;;;;;28.10;37.37;100209.72;4973373;28;46074;-73
2023/06/10 00:54:38;;;;;;;;;10.00;9.25;;;;;28.07;37.20;100211.00;4972874;28;46345;-76
2023/06/10 00:57:04;;;;;;;;;11.00;11.00;;;;;28.02;37.68;100213.56;4973062;28;45632;-74
2023/06/10 00:59:30;;;;;;;;;9.00;8.75;;;;;27.98;38.03;100210.53;4973559;28;45644;-74
2023/06/10 01:01:56;;;;;;;;;12.25;11.00;;;;;27.90;38.14;100199.28;4972966;28;47711;-74
2023/06/10 01:07:55;;;;;;;;;8.25;8.00;;;;;27.90;37.79;100210.88;4966243;28;45700;-73
2023/06/10 01:10:31;;;;;;;;;10.25;9.00;;;;;27.85;38.02;100208.06;4973816;28;45779;-74
2023/06/10 01:13:03;;;;;;;;;7.50;7.00;;;;;27.82;38.60;100215.75;4973446;28;46725;-74
2023/06/10 01:15:30;;;;;;;;;7.00;7.00;;;;;27.77;38.73;100213.75;4972522;28;46112;-74
2023/06/10 01:17:59;;;;;;;;;7.75;7.00;;;;;27.74;38.22;100214.25;4973107;28;45791;-76
2023/06/10 01:20:28;;;;;;;;;7.50;6.75;;;;;27.67;38.91;100205.44;4973149;28;45897;-75
2023/06/10 01:22:54;;;;;;;;;8.75;8.50;;;;;27.66;39.09;100216.44;4972916;28;45813;-76
2023/06/10 01:25:28;;;;;;;;;7.00;7.00;;;;;27.62;39.34;100213.38;4973038;28;45608;-74
2023/06/10 01:28:07;;;;;;;;;9.75;9.00;;;;;27.53;39.48;100207.47;4973184;28;45819;-74
2023/06/10 01:30:47;;;;;;;;;8.50;7.25;;;;;27.49;39.24;100203.59;4973119;28;45602;-75
2023/06/10 01:33:17;;;;;;;;;8.00;7.75;;;;;27.44;39.73;100199.94;4973092;28;46739;-75
2023/06/10 01:35:44;;;;;;;;;9.00;7.25;;;;;27.45;39.99;100209.66;4972241;28;46239;-76
2023/06/10 01:38:12;;;;;;;;;8.50;8.25;;;;;27.42;40.11;100219.00;4972734;28;45633;-76
2023/06/10 01:40:38;;;;;;;;;8.00;7.50;;;;;27.41;40.03;100220.06;4973144;28;45716;-74
2023/06/10 01:43:04;;;;;;;;;6.50;5.00;;;;;27.41;40.45;100216.56;4972972;28;46551;-74
2023/06/10 01:45:29;;;;;;;;;7.75;7.75;;;;;27.37;40.40;100213.47;4972569;28;45759;-75
2023/06/10 01:47:54;;;;;;;;;8.00;8.00;;;;;27.37;39.65;100212.69;4972951;28;45711;-76
2023/06/10 01:50:20;;;;;;;;;9.25;9.00;;;;;27.36;40.03;100227.19;4973115;28;45632;-76
2023/06/10 01:52:45;;;;;;;;;8.00;8.00;;;;;27.34;40.32;100226.59;4973040;28;46762;-75
2023/06/10 01:55:10;;;;;;;;;10.50;9.00;;;;;27.31;40.47;100225.19;4972629;28;45781;-74
2023/06/10 01:57:36;;;;;;;;;7.75;7.50;;;;;27.28;40.35;100222.94;4972636;28;45976;-77
2023/06/10 02:00:03;;;;;;;;;8.25;8.00;;;;;27.29;40.41;100231.81;4972788;28;45693;-74
2023/06/10 02:02:28;;;;;;;;;8.25;7.00;;;;;27.27;40.42;100226.66;4972723;28;46821;-77
2023/06/10 02:08:15;;;;;;;;;6.75;6.75;;;;;27.17;40.40;100231.75;4970455;28;45820;-75
2023/06/10 02:10:40;;;;;;;;;7.75;7.00;;;;;27.06;41.00;100216.38;4976364;28;45678;-76
2023/06/10 02:13:06;;;;;;;;;7.50;7.00;;;;;27.14;40.66;100224.16;4976215;28;45850;-77
2023/06/10 02:15:31;;;;;;;;;9.00;8.00;;;;;27.11;40.78;100221.91;4975316;28;45784;-76
2023/06/10 02:17:57;;;;;;;;;7.00;7.00;;;;;27.12;40.82;100228.94;4976120;28;45643;-77
2023/06/10 02:23:44;;;;;;;;;7.00;7.00;;;;;27.07;40.52;100226.94;4975761;28;45727;-75
2023/06/10 02:26:10;;;;;;;;;8.50;7.25;;;;;27.06;40.76;100227.97;4957466;28;46291;-76
2023/06/10 02:28:35;;;;;;;;;7.00;7.00;;;;;27.00;41.09;100218.09;4975624;28;46075;-76
2023/06/10 02:31:00;;;;;;;;;7.00;7.00;;;;;27.00;41.56;100220.81;4975996;28;45820;-76
2023/06/10 02:33:27;;;;;;;;;7.00;7.00;;;;;27.02;41.15;100229.47;4975546;28;45803;-75
2023/06/10 02:35:52;;;;;;;;;7.75;7.00;;;;;27.01;41.43;100232.38;4974999;28;46159;-76
2023/06/10 02:38:18;;;;;;;;;8.25;7.50;;;;;27.00;41.29;100234.25;4975836;28;45642;-76
2023/06/10 02:40:43;;;;;;;;;8.00;8.00;;;;;27.00;40.95;100234.25;4976003;28;45738;-75
2023/06/10 02:43:09;;;;;;;;;7.25;7.00;;;;;27.00;40.86;100233.41;4975433;28;45564;-74
2023/06/10 02:45:34;;;;;;;;;10.75;9.00;;;;;26.97;41.53;100232.03;4975186;28;46334;-76
2023/06/10 02:48:00;;;;;;;;;9.00;8.00;;;;;26.94;41.30;100237.00;4975597;28;45672;-75
2023/06/10 02:53:47;;;;;;;;;10.00;7.00;;;;;26.85;41.33;100233.78;4975359;28;46082;-75
2023/06/10 02:56:16;;;;;;;;;8.00;6.25;;;;;26.78;41.63;100230.31;4974687;28;46589;-75
2023/06/10 02:58:41;;;;;;;;;7.00;7.00;;;;;26.79;41.98;100237.34;4975570;28;45703;-75
2023/06/10 03:01:07;;;;;;;;;7.25;7.25;;;;;26.79;42.10;100242.72;4975334;28;45743;-75
2023/06/10 03:03:33;;;;;;;;;9.50;8.00;;;;;26.76;41.65;100234.31;4975321;28;46408;-75
2023/06/10 03:09:21;;;;;;;;;8.25;7.25;;;;;26.66;41.73;100241.03;4965069;28;45858;-74
2023/06/10 03:11:46;;;;;;;;;6.75;6.25;;;;;26.63;42.20;100246.84;4975713;28;45585;-75
2023/06/10 03:14:11;;;;;;;;;6.00;6.00;;;;;26.59;42.01;100247.50;4974975;28;45638;-75
2023/06/10 03:16:40;;;;;;;;;7.00;7.00;;;;;26.57;42.31;100244.22;4975387;28;46163;-75
2023/06/10 03:19:07;;;;;;;;;6.00;6.00;;;;;26.53;42.47;100254.59;4974878;28;45908;-75
2023/06/10 03:21:33;;;;;;;;;5.00;5.00;;;;;26.51;42.47;100247.78;4975486;28;45632;-75
2023/06/10 03:23:58;;;;;;;;;9.25;8.25;;;;;26.50;42.34;100252.34;4974844;28;45752;-76
2023/06/10 03:26:24;;;;;;;;;7.25;6.25;;;;;26.50;42.53;100254.22;4974377;28;46425;-75
2023/06/10 03:28:49;;;;;;;;;6.00;5.75;;;;;26.46;42.45;100243.06;4974671;28;45628;-76
2023/06/10 03:31:16;;;;;;;;;7.00;7.00;;;;;26.41;42.60;100244.78;4975282;28;45586;-76
2023/06/10 03:33:42;;;;;;;;;7.00;7.00;;;;;26.39;42.20;100247.72;4974991;28;46227;-76
2023/06/10 03:39:29;;;;;;;;;8.00;7.50;;;;;26.24;43.06;100231.91;4974740;28;45746;-76
2023/06/10 03:41:56;;;;;;;;;7.75;7.75;;;;;26.25;43.18;100241.59;4974695;28;45661;-77
2023/06/10 03:44:22;;;;;;;;;6.50;6.50;;;;;26.26;42.68;100242.44;4974074;28;47532;-75
2023/06/10 03:46:47;;;;;;;;;7.75;6.75;;;;;26.23;43.03;100246.41;4956884;28;47577;-75
2023/06/10 03:49:12;;;;;;;;;8.75;7.75;;;;;26.16;43.11;100250.13;4974633;28;45678;-76
2023/06/10 03:51:38;;;;;;;;;8.50;7.00;;;;;26.12;43.21;100251.63;4956866;28;45984;-76
2023/06/10 03:54:03;;;;;;;;;8.00;7.00;;;;;26.11;43.24;100249.97;4974403;28;45662;-77
2023/06/10 03:56:29;;;;;;;;;6.50;6.50;;;;;26.08;43.42;100248.53;4973838;28;46682;-77
2023/06/10 03:58:55;;;;;;;;;8.00;7.75;;;;;26.01;43.21;100238.91;4974661;28;45735;-77
2023/06/10 04:01:20;;;;;;;;;7.50;7.00;;;;;26.04;43.38;100255.41;4956877;28;45910;-77
2023/06/10 04:03:48;;;;;;;;;8.00;7.00;;;;;26.03;43.52;100258.28;4957131;28;46968;-77
2023/06/10 04:06:13;;;;;;;;;7.75;6.75;;;;;25.98;43.48;100245.53;4974042;28;45585;-77
2023/06/10 04:08:39;;;;;;;;;7.50;7.00;;;;;26.00;43.48;100264.09;4974194;28;46100;-76
2023/06/10 04:11:04;;;;;;;;;6.00;6.00;;;;;26.01;43.29;100274.63;4974311;28;45818;-76
2023/06/10 04:13:29;;;;;;;;;6.00;5.50;;;;;25.97;43.50;100262.66;4974063;28;45771;-76
2023/06/10 04:15:55;;;;;;;;;6.50;6.50;;;;;25.95;43.74;100262.06;4955679;28;48518;-76
2023/06/10 04:18:21;;;;;;;;;7.00;7.00;;;;;25.95;43.63;100264.75;4974173;28;45562;-75
2023/06/10 04:20:47;;;;;;;;;7.25;6.75;;;;;25.87;43.62;100255.09;4974100;28;45805;-75
2023/06/10 04:23:12;;;;;;;;;6.00;6.00;;;;;25.93;43.64;100269.50;4973906;28;47223;-77
2023/06/10 04:25:37;;;;;;;;;7.00;7.00;;;;;25.92;43.59;100268.69;4973218;28;46091;-77
2023/06/10 04:28:03;;;;;;;;;8.00;8.00;;;;;25.91;43.51;100271.63;4974154;28;46201;-77
2023/06/10 04:30:28;;;;;;;;;5.50;5.50;;;;;25.90;43.93;100269.97;4972660;28;45853;-77
2023/06/10 04:32:54;;;;;;;;;6.00;6.00;;;;;25.89;43.80;100273.69;4974114;28;45695;-74
2023/06/10 04:35:19;;;;;;;;;7.00;6.50;;;;;25.86;43.95;100274.94;4973113;28;46952;-76
2023/06/10 04:37:45;;;;;;;;;7.25;6.50;;;;;25.82;43.89;100270.22;4974131;28;45616;-76
2023/06/10 04:40:10;;;;;;;;;7.25;7.00;;;;;25.83;43.81;100286.09;4973676;28;45567;-77
2023/06/10 04:42:37;;;;;;;;;8.50;6.75;;;;;25.81;44.13;100287.34;4973813;28;45788;-77
2023/06/10 04:45:03;;;;;;;;;7.00;6.75;;;;;25.79;44.07;100290.28;4973311;28;46281;-76
2023/06/10 04:47:32;;;;;;;;;8.25;7.00;;;;;25.76;43.99;100287.19;4973425;28;45592;-76
2023/06/10 04:50:03;;;;;;;;;7.50;7.25;;;;;25.71;44.19;100298.56;4973657;28;45619;-76
2023/06/10 04:55:50;;;;;;;;;7.50;7.25;;;;;25.62;44.18;100282.94;4972751;28;45752;-75
2023/06/10 04:58:15;;;;;;;;;6.50;6.25;;;;;25.64;44.17;100302.34;4973385;28;45742;-76
2023/06/10 05:00:41;;;;;;;;;6.00;6.00;;;;;25.62;44.26;100293.66;4973501;28;46014;-75
2023/06/10 05:03:07;;;;;;;;;7.00;5.00;;;;;25.60;44.15;100299.25;4973202;28;46256;-75
2023/06/10 05:05:32;;;;;;;;;6.25;5.25;;;;;25.60;44.42;100306.47;4972658;28;45735;-76
2023/06/10 05:11:46;;;;;;;;;6.00;6.00;;;;;25.59;44.42;100304.84;4966369;28;46028;-76
2023/06/10 05:14:11;;;;;;;;;6.50;6.50;;;;;25.51;44.57;100295.13;4972653;28;47117;-77
2023/06/10 05:16:37;;;;;;;;;9.00;8.00;;;;;25.55;44.39;100298.19;4972871;28;45860;-77
2023/06/10 05:19:03;;;;;;;;;6.50;6.50;;;;;25.53;45.01;100294.94;4973198;28;45741;-77
2023/06/10 05:21:28;;;;;;;;;7.25;7.25;;;;;25.53;44.86;100300.28;4972958;28;45664;-75
2023/06/10 05:23:54;;;;;;;;;7.00;6.00;;;;;25.48;45.10;100292.88;4972765;28;47414;-78
2023/06/10 05:26:20;;;;;;;;;7.75;7.00;;;;;25.53;44.85;100311.03;4954904;28;45723;-75
2023/06/10 05:28:45;;;;;;;;;6.75;6.75;;;;;25.52;44.67;100318.25;4973340;28;45675;-76
2023/06/10 05:31:10;;;;;;;;;8.25;7.50;;;;;25.52;44.83;100314.75;4973106;28;45561;-77
2023/06/10 05:33:37;;;;;;;;;7.25;7.00;;;;;25.52;44.79;100314.75;4972763;28;47245;-78
2023/06/10 05:36:02;;;;;;;;;5.25;5.25;;;;;25.49;45.25;100311.44;4955001;28;47410;-77
2023/06/10 05:41:50;;;;;;;;;8.25;7.75;;;;;25.47;45.35;100302.81;4972536;28;45727;-78
2023/06/10 05:44:16;;;;;;;;;8.75;7.25;;;;;25.45;45.25;100304.84;4972970;28;47290;-79
2023/06/10 05:46:41;;;;;;;;;7.00;7.00;;;;;25.45;45.08;100299.50;4954990;28;47170;-77
2023/06/10 05:49:06;;;;;;;;;6.25;6.00;;;;;25.49;45.17;100307.94;4972708;28;45565;-80
2023/06/10 05:51:32;;;;;;;;;7.50;5.50;;;;;25.47;45.37;100305.47;4972809;28;45522;-80
2023/06/10 05:53:57;;;;;;;;;6.25;6.00;;;;;25.49;45.38;100318.66;4972682;28;45757;-80
2023/06/10 05:56:23;;;;;;;;;7.25;7.25;;;;;25.54;45.38;100321.53;4972109;28;45925;-83
2023/06/10 05:58:49;;;;;;;;;6.50;6.00;;;;;25.54;45.34;100321.53;4955321;28;45721;-79
2023/06/10 06:01:15;;;;;;;;;7.00;7.00;;;;;25.53;45.35;100316.41;4973066;28;45764;-78
2023/06/10 06:03:40;;;;;;;;;6.00;6.00;;;;;25.58;45.39;100327.34;4972755;28;46274;-78
2023/06/10 06:06:06;;;;;;;;;7.25;6.75;;;;;25.59;45.42;100327.09;4972836;28;45828;-80
2023/06/10 06:11:53;;;;;;;;;8.75;8.00;;;;;25.56;45.45;100322.19;4967369;28;45617;-78
2023/06/10 06:14:19;;;;;;;;;9.75;8.00;;;;;25.57;45.50;100323.84;4972573;28;46576;-79
2023/06/10 06:16:44;;;;;;;;;8.00;7.00;;;;;25.60;45.60;100328.75;4972502;28;45655;-81
2023/06/10 06:19:11;;;;;;;;;8.00;7.50;;;;;25.58;45.49;100320.13;4972994;28;45446;-80
2023/06/10 06:21:36;;;;;;;;;8.00;8.00;;;;;25.60;45.56;100319.88;4972992;28;45786;-81
2023/06/10 06:27:23;;;;;;;;;9.75;8.00;;;;;25.56;45.30;100308.75;4972364;28;45827;-81
2023/06/10 06:29:48;;;;;;;;;8.00;6.25;;;;;25.61;45.43;100325.03;4973050;28;45677;-80
2023/06/10 06:32:14;;;;;;;;;8.00;7.75;;;;;25.59;45.67;100318.25;4972701;28;45545;-79
2023/06/10 06:34:39;;;;;;;;;7.00;7.00;;;;;25.64;45.66;100331.84;4972214;28;45529;-80
2023/06/10 06:37:05;;;;;;;;;7.50;7.00;;;;;25.66;45.63;100341.31;4972221;28;45632;-80
2023/06/10 06:39:30;;;;;;;;;8.00;7.00;;;;;25.65;45.77;100337.00;4972515;28;45819;-78
2023/06/10 06:41:55;;;;;;;;;7.50;7.25;;;;;25.68;45.82;100341.13;4971969;28;45949;-77
2023/06/10 06:44:21;;;;;;;;;8.00;7.50;;;;;25.67;45.70;100326.06;4972082;28;46377;-79
2023/06/10 06:46:46;;;;;;;;;7.25;7.25;;;;;25.68;45.82;100333.91;4970705;28;45704;-76
2023/06/10 06:49:11;;;;;;;;;7.75;7.00;;;;;25.65;45.87;100330.78;4954747;28;45646;-78
2023/06/10 06:51:37;;;;;;;;;7.00;7.00;;;;;25.69;45.86;100342.78;4972660;28;45727;-77
2023/06/10 06:57:24;;;;;;;;;10.50;8.75;;;;;25.59;45.81;100337.03;4975285;28;45945;-85
2023/06/10 06:59:49;;;;;;;;;9.00;8.00;;;;;25.68;45.99;100350.00;4976014;28;45976;-82
2023/06/10 07:02:15;;;;;;;;;10.50;9.50;;;;;25.70;46.28;100353.28;4958601;28;45659;-78
2023/06/10 07:04:41;;;;;;;;;7.75;7.25;;;;;25.64;46.30;100345.28;4975435;28;46493;-79
2023/06/10 07:07:08;;;;;;;;;6.00;5.00;;;;;25.70;46.09;100341.72;4976192;28;45868;-79
2023/06/10 07:12:55;;;;;;;;;8.25;7.50;;;;;25.73;46.95;100355.56;4967144;28;45647;-79
2023/06/10 07:15:21;;;;;;;;;5.25;5.00;;;;;25.74;46.44;100351.00;4977070;28;45592;-79
2023/06/10 07:17:46;;;;;;;;;8.75;7.00;;;;;25.74;46.03;100351.84;4977629;28;45666;-79
2023/06/10 07:20:13;;;;;;;;;9.00;8.00;;;;;25.79;46.69;100362.75;4977558;28;45675;-78
2023/06/10 07:22:39;;;;;;;;;7.50;7.25;;;;;25.80;46.74;100353.63;4977655;28;45754;-78
2023/06/10 07:25:05;;;;;;;;;8.50;7.50;;;;;25.59;47.03;100321.75;4976348;28;46120;-81
2023/06/10 07:27:30;;;;;;;;;6.75;6.25;;;;;25.73;46.56;100349.34;4976672;28;46010;-82
2023/06/10 07:29:56;;;;;;;;;6.00;6.00;;;;;25.82;46.91;100354.25;4976744;28;45697;-79
2023/06/10 07:32:23;;;;;;;;;8.00;8.00;;;;;25.86;46.91;100360.84;4977205;28;45786;-80
2023/06/10 07:34:48;;;;;;;;;7.00;6.75;;;;;25.85;46.86;100353.03;4976609;28;45640;-80
2023/06/10 07:37:14;;;;;;;;;7.25;6.00;;;;;25.86;46.76;100362.69;4977017;28;45552;-85
2023/06/10 07:43:01;;;;;;;;;11.00;10.00;;;;;25.94;47.04;100369.69;4977645;28;45627;-78
2023/06/10 07:45:26;;;;;;;;;7.00;7.00;;;;;25.94;47.35;100367.00;4977777;28;46423;-86
2023/06/10 07:47:52;;;;;;;;;7.75;7.75;;;;;25.97;47.46;100372.75;4978281;28;45621;-81
2023/06/10 07:50:17;;;;;;;;;9.00;9.00;;;;;25.92;47.66;100361.84;4977768;28;45493;-86
2023/06/10 07:52:43;;;;;;;;;10.75;9.75;;;;;25.98;47.41;100365.53;4977182;28;45505;-87
2023/06/10 07:58:30;;;;;;;;;8.75;7.75;;;;;26.00;47.46;100368.84;4976897;28;45663;-84
2023/06/10 08:00:55;;;;;;;;;8.50;8.00;;;;;26.05;47.57;100377.88;4978443;28;45683;-85
2023/06/10 08:03:20;;;;;;;;;9.50;8.25;;;;;26.03;48.12;100369.22;4978862;28;45762;-82
2023/06/10 08:05:46;;;;;;;;;8.50;8.50;;;;;26.08;47.52;100385.50;4975324;28;46399;-79
2023/06/10 08:08:13;;;;;;;;;9.50;8.50;;;;;26.12;47.63;100383.22;4975055;28;47063;-81
2023/06/10 08:14:01;;;;;;;;;7.00;6.25;;;;;26.14;47.52;100392.69;4964940;28;45724;-78
2023/06/10 08:16:26;;;;;;;;;10.50;7.50;;;;;26.19;47.72;100390.19;4974706;28;47255;-73
2023/06/10 08:18:51;;;;;;;;;6.50;6.25;;;;;26.16;47.49;100382.56;4974797;28;45759;-74
2023/06/10 08:21:17;;;;;;;;;9.25;8.00;;;;;26.23;47.19;100398.69;4974827;28;45534;-76
2023/06/10 08:23:42;;;;;;;;;8.25;7.75;;;;;26.21;47.43;100388.13;4974812;28;45734;-74
2023/06/10 08:26:07;;;;;;;;;6.25;6.00;;;;;26.21;47.62;100392.66;4975038;28;46452;-73
2023/06/10 08:28:33;;;;;;;;;9.00;8.25;;;;;26.23;47.32;100394.16;4974764;28;45712;-73
2023/06/10 08:30:58;;;;;;;;;8.25;8.00;;;;;26.20;47.21;100394.53;4974814;28;45830;-73
2023/06/10 08:33:23;;;;;;;;;8.50;8.00;;;;;26.20;47.21;100399.91;4974763;28;45844;-70
2023/06/10 08:35:49;;;;;;;;;7.25;7.25;;;;;26.20;47.62;100382.97;4974727;28;46524;-76
2023/06/10 08:38:16;;;;;;;;;8.50;8.00;;;;;26.26;47.17;100399.06;4974600;28;46107;-74
2023/06/10 08:44:18;;;;;;;;;8.00;7.00;;;;;26.19;47.45;100378.63;4974612;28;45642;-74
2023/06/10 08:46:45;;;;;;;;;7.00;7.00;;;;;26.36;47.25;100393.22;4974650;28;46494;-72
2023/06/10 08:49:17;;;;;;;;;8.25;8.25;;;;;26.40;47.11;100394.41;4974320;28;47360;-73
2023/06/10 08:51:42;;;;;;;;;7.00;6.50;;;;;26.46;47.21;100392.72;4957741;28;45712;-73
2023/06/10 08:54:27;;;;;;;;;7.50;7.50;;;;;26.47;47.83;100381.78;4974792;28;45640;-72
2023/06/10 08:56:55;;;;;;;;;7.00;6.50;;;;;26.52;47.50;100391.88;4974645;28;45582;-71
2023/06/10 08:59:21;;;;;;;;;7.50;6.00;;;;;26.52;47.51;100395.38;4974283;28;47077;-71
2023/06/10 09:01:47;;;;;;;;;7.00;6.00;;;;;26.54;47.37;100396.00;4974896;28;45695;-71
2023/06/10 09:04:13;;;;;;;;;6.50;6.00;;;;;26.57;47.21;100394.72;4974370;28;45468;-72
2023/06/10 09:06:40;;;;;;;;;6.50;6.00;;;;;26.60;46.95;100394.28;4973957;28;47871;-72
2023/06/10 09:09:07;;;;;;;;;7.75;6.25;;;;;26.66;47.45;100393.44;4974509;28;46425;-73
2023/06/10 09:14:53;;;;;;;;;7.50;6.50;;;;;26.73;46.86;100392.31;4965054;28;45715;-73
2023/06/10 09:17:19;;;;;;;;;4.75;4.75;;;;;26.77;46.51;100398.09;4973487;28;46265;-72
2023/06/10 09:19:46;;;;;;;;;6.75;5.00;;;;;26.82;46.58;100389.38;4974275;28;45711;-73
2023/06/10 09:22:11;;;;;;;;;0.00;0.00;;;;;26.84;46.22;100393.47;4974348;28;45603;-73
2023/06/10 09:24:37;;;;;;;;;5.50;5.00;;;;;26.89;46.38;100390.13;4974038;28;45679;-73
2023/06/10 09:27:07;;;;;;;;;5.50;3.25;;;;;26.93;46.42;100394.88;4974100;28;45588;-72
2023/06/10 09:29:53;;;;;;;;;4.50;3.75;;;;;26.98;46.60;100394.22;4973968;28;46362;-72
2023/06/10 09:32:19;;;;;;;;;6.00;5.25;;;;;27.01;45.69;100388.38;4974262;28;45620;-72
2023/06/10 09:34:46;;;;;;;;;5.75;5.75;;;;;26.98;46.42;100378.06;4974083;28;45513;-73
2023/06/10 09:37:13;;;;;;;;;6.00;5.50;;;;;27.06;45.45;100393.91;4956075;28;48437;-73
2023/06/10 09:39:42;;;;;;;;;8.00;7.00;;;;;27.12;46.19;100399.22;4973111;28;46084;-73
2023/06/10 09:42:18;;;;;;;;;4.25;3.75;;;;;27.17;45.75;100397.72;4973795;28;45685;-72
2023/06/10 09:44:52;;;;;;;;;7.50;6.00;;;;;27.18;45.56;100392.16;4973623;28;45548;-72
2023/06/10 09:47:22;;;;;;;;;6.25;5.50;;;;;27.19;45.44;100391.09;4974235;28;46441;-73
2023/06/10 09:49:53;;;;;;;;;11.25;8.50;;;;;27.18;45.17;100394.84;4973794;28;46384;-72
2023/06/10 09:52:25;;;;;;;;;7.00;5.00;;;;;27.22;45.09;100393.34;4973615;28;45544;-73
2023/06/10 09:54:58;;;;;;;;;5.50;5.00;;;;;27.31;45.34;100408.16;4974171;28;45677;-73
2023/06/10 09:57:25;;;;;;;;;11.00;9.75;;;;;27.32;45.52;100401.72;4973721;28;46815;-72
2023/06/10 09:59:54;;;;;;;;;7.00;6.00;;;;;27.28;45.14;100381.69;4972906;28;47050;-72
2023/06/10 10:02:20;;;;;;;;;6.50;6.50;;;;;27.39;45.13;100389.00;4972661;28;45715;-72
2023/06/10 10:04:45;;;;;;;;;7.25;6.50;;;;;27.43;44.97;100397.44;4972754;28;45842;-72
2023/06/10 10:07:11;;;;;;;;;7.00;7.00;;;;;27.46;44.98;100392.47;4973048;28;45633;-70
2023/06/10 10:09:37;;;;;;;;;5.25;5.25;;;;;27.55;44.80;100401.91;4972609;28;47197;-70
2023/06/10 10:15:30;;;;;;;;;6.50;6.00;;;;;27.65;44.39;100403.25;4967153;28;45612;-71
2023/06/10 10:18:02;;;;;;;;;6.50;6.00;;;;;27.68;44.59;100408.19;4972821;28;46702;-71
2023/06/10 10:20:33;;;;;;;;;7.75;6.25;;;;;27.73;44.45;100403.78;4972631;28;45845;-71
2023/06/10 10:23:02;;;;;;;;;6.00;5.75;;;;;27.77;44.54;100396.88;4972748;28;45577;-71
2023/06/10 10:25:35;;;;;;;;;12.00;11.00;;;;;27.81;43.52;100397.22;4972940;28;45576;-72
2023/06/10 10:28:12;;;;;;;;;10.50;9.25;;;;;27.87;43.42;100396.34;4974175;28;47283;-73
2023/06/10 10:30:44;;;;;;;;;14.00;12.50;;;;;27.91;43.46;100402.91;4976155;28;46053;-74
2023/06/10 10:33:16;;;;;;;;;17.75;16.00;;;;;27.93;43.07;100401.63;4976080;28;45735;-72
2023/06/10 10:35:43;;;;;;;;;7.50;7.00;;;;;27.99;43.69;100405.31;4975834;28;45556;-75
2023/06/10 10:38:09;;;;;;;;;9.00;7.75;;;;;28.01;42.81;100397.81;4974765;28;45549;-71
2023/06/10 10:40:36;;;;;;;;;7.00;7.00;;;;;28.03;43.24;100397.56;4975844;28;45616;-72
2023/06/10 10:43:02;;;;;;;;;7.25;6.00;;;;;28.11;42.46;100406.19;4975852;28;45729;-73
2023/06/10 10:45:29;;;;;;;;;10.50;9.00;;;;;28.13;43.20;100395.19;4976164;28;45620;-75
2023/06/10 10:47:56;;;;;;;;;6.00;6.00;;;;;28.19;42.73;100400.47;4974336;28;46760;-75
2023/06/10 10:50:22;;;;;;;;;8.75;7.75;;;;;28.23;42.76;100396.28;4958018;28;46928;-74
2023/06/10 10:52:53;;;;;;;;;7.75;7.50;;;;;28.28;42.11;100387.53;4975872;28;45501;-75
2023/06/10 10:55:19;;;;;;;;;7.50;7.50;;;;;28.31;42.11;100387.03;4975654;28;45620;-74
2023/06/10 11:01:14;;;;;;;;;7.00;6.75;;;;;28.38;41.37;100387.78;4975536;28;45888;-79
2023/06/10 11:03:46;;;;;;;;;6.75;6.75;;;;;28.42;41.58;100391.66;4976001;28;45664;-79
2023/06/10 11:06:14;;;;;;;;;5.25;5.25;;;;;28.46;41.63;100379.34;4975900;28;45520;-76
2023/06/10 11:08:39;;;;;;;;;7.25;6.25;;;;;28.51;40.66;100365.16;4975534;28;47316;-76
2023/06/10 11:11:26;;;;;;;;;7.00;6.75;;;;;28.51;40.72;100375.94;4975371;28;46112;-78
2023/06/10 11:14:06;;;;;;;;;7.75;7.75;;;;;28.55;40.54;100377.97;4958467;28;45732;-77
2023/06/10 11:16:42;;;;;;;;;7.25;5.75;;;;;28.62;39.99;100385.94;4974836;28;45529;-78
2023/06/10 11:19:08;;;;;;;;;6.25;5.75;;;;;28.63;40.21;100377.63;4974861;28;46828;-78
2023/06/10 11:22:03;;;;;;;;;7.50;7.00;;;;;28.72;40.10;100386.16;4975290;28;45985;-75
2023/06/10 11:24:30;;;;;;;;;5.75;5.75;;;;;28.79;40.02;100389.63;4973380;28;45772;-78
2023/06/10 11:27:14;;;;;;;;;6.50;6.25;;;;;28.83;39.61;100380.00;4975379;28;45560;-79
2023/06/10 11:29:55;;;;;;;;;8.50;7.25;;;;;28.88;39.90;100382.81;4974954;28;46301;-78
2023/06/10 11:32:20;;;;;;;;;7.50;7.00;;;;;28.88;39.77;100376.63;4975357;28;45975;-79
2023/06/10 11:34:52;;;;;;;;;9.00;6.00;;;;;28.96;39.41;100384.34;4974937;28;45690;-77
2023/06/10 11:37:18;;;;;;;;;7.50;7.00;;;;;28.99;39.18;100382.00;4975360;28;45544;-78
2023/06/10 11:39:44;;;;;;;;;7.50;6.50;;;;;29.02;39.72;100380.72;4974456;28;46518;-76
2023/06/10 11:42:10;;;;;;;;;7.75;7.00;;;;;29.05;39.47;100374.84;4974496;28;46501;-80
2023/06/10 11:44:37;;;;;;;;;9.00;7.75;;;;;29.05;39.34;100383.75;4975060;28;45604;-81
2023/06/10 11:47:03;;;;;;;;;7.00;7.00;;;;;29.10;38.71;100393.84;4975055;28;45829;-78
2023/06/10 11:49:29;;;;;;;;;7.00;7.00;;;;;29.08;38.95;100377.91;4975498;28;45730;-79
2023/06/10 11:51:54;;;;;;;;;9.00;8.00;;;;;28.98;39.13;100369.59;4975401;28;46104;-78
2023/06/10 11:54:21;;;;;;;;;7.75;7.00;;;;;29.12;39.56;100384.47;4974525;28;45533;-78
2023/06/10 11:56:48;;;;;;;;;10.50;9.75;;;;;29.11;39.01;100377.44;4957573;28;45844;-80
2023/06/10 11:59:14;;;;;;;;;8.00;7.50;;;;;29.22;39.26;100391.97;4974814;28;46483;-80
2023/06/10 12:01:44;;;;;;;;;6.25;6.25;;;;;29.25;38.99;100385.28;4974723;28;45659;-77
2023/06/10 12:04:15;;;;;;;;;8.50;8.00;;;;;29.24;39.11;100373.66;4974593;28;45602;-79
2023/06/10 12:06:48;;;;;;;;;7.75;7.25;;;;;29.33;39.07;100387.63;4974783;28;45737;-82
2023/06/10 12:09:25;;;;;;;;;8.00;8.00;;;;;29.34;38.61;100382.00;4975230;28;46857;-80
2023/06/10 12:11:57;;;;;;;;;7.75;7.75;;;;;29.43;38.95;100387.84;4974239;28;46836;-78
2023/06/10 12:17:59;;;;;;;;;8.25;8.25;;;;;29.54;39.21;100381.59;4966869;28;45943;-88
2023/06/10 12:20:27;;;;;;;;;8.75;8.75;;;;;29.58;38.70;100386.28;4974392;28;45533;-79
2023/06/10 12:22:53;;;;;;;;;3.25;3.25;;;;;29.61;38.74;100377.72;4974283;28;46264;-81
2023/06/10 12:25:25;;;;;;;;;8.75;8.25;;;;;29.65;38.85;100380.75;4976718;28;45683;-78
2023/06/10 12:27:53;;;;;;;;;7.00;7.00;;;;;29.65;38.83;100372.66;4974582;28;45756;-79
2023/06/10 12:30:28;;;;;;;;;7.75;7.00;;;;;29.72;38.84;100370.66;4973696;28;45620;-78
2023/06/10 12:32:54;;;;;;;;;8.25;8.25;;;;;29.82;39.05;100381.66;4976839;28;45799;-88
2023/06/10 12:35:24;;;;;;;;;9.00;8.50;;;;;29.87;38.43;100381.75;4975779;28;45640;-79
2023/06/10 12:38:11;;;;;;;;;7.50;7.50;;;;;29.91;38.85;100374.81;4975824;28;45707;-77
2023/06/10 12:40:40;;;;;;;;;8.00;8.00;;;;;29.96;38.68;100385.72;4956593;28;46591;-80
2023/06/10 12:43:06;;;;;;;;;10.25;7.50;;;;;30.01;38.78;100390.44;4973205;28;46387;-75